Machichaco, Vizcaya

latitud = 43° 33' 39''N | longitud = 005° 41' 55''W
93 metros sobre el nivel del mar | datos mensuales

Fecha, hora, temperatura, viento dirección y velocidad, humedad y presión.

  • 14-10-2018 19:00:00 | 13.90°C | Oeste |35.00 km/h | 79.00% | 0.00 hPa
  • 14-10-2018 18:00:00 | 13.20°C | Oeste |35.00 km/h | 86.00% | 0.00 hPa
  • 14-10-2018 17:00:00 | 13.10°C | Oeste |56.00 km/h | 88.00% | 0.00 hPa
  • 14-10-2018 16:00:00 | 13.00°C | Oeste |54.00 km/h | 90.00% | 0.00 hPa
  • 14-10-2018 15:00:00 | 12.80°C | Oeste |36.00 km/h | 93.00% | 0.00 hPa
  • 14-10-2018 14:00:00 | 12.60°C | Oeste |51.00 km/h | 96.00% | 0.00 hPa
  • 14-10-2018 13:00:00 | 12.40°C | Oeste |60.00 km/h | 99.00% | 0.00 hPa
  • 14-10-2018 12:00:00 | 12.70°C | Oeste |47.00 km/h | 99.00% | 0.00 hPa
  • 14-10-2018 11:00:00 | 13.10°C | Oeste |57.00 km/h | 99.00% | 0.00 hPa
  • 14-10-2018 10:00:00 | 14.80°C | Oeste |59.00 km/h | 93.00% | 0.00 hPa
  • 14-10-2018 09:00:00 | 15.40°C | Oeste |36.00 km/h | 96.00% | 0.00 hPa
  • 14-10-2018 08:00:00 | 15.20°C | Oeste |30.00 km/h | 97.00% | 0.00 hPa
  • 14-10-2018 07:00:00 | 16.20°C | Sudoeste |19.00 km/h | 95.00% | 0.00 hPa
  • 14-10-2018 06:00:00 | 16.50°C | Oeste |19.00 km/h | 91.00% | 0.00 hPa
  • 14-10-2018 05:00:00 | 17.00°C | Oeste |27.00 km/h | 88.00% | 0.00 hPa
  • 14-10-2018 04:00:00 | 19.70°C | Oeste |23.00 km/h | 77.00% | 0.00 hPa
  • 14-10-2018 03:00:00 | 23.80°C | Sur |13.00 km/h | 59.00% | 0.00 hPa
  • 14-10-2018 02:00:00 | 24.20°C | Sudeste |13.00 km/h | 58.00% | 0.00 hPa
  • 14-10-2018 01:00:00 | 24.10°C | Sur |11.00 km/h | 59.00% | 0.00 hPa
  • 14-10-2018 00:00:00 | 23.30°C | Sudeste |9.00 km/h | 63.00% | 0.00 hPa
  • 13-10-2018 23:00:00 | 22.80°C | Sudeste |8.00 km/h | 63.00% | 0.00 hPa
  • 13-10-2018 22:00:00 | 23.50°C | Sudeste |7.00 km/h | 61.00% | 0.00 hPa
  • 13-10-2018 21:00:00 | 23.30°C | Este |8.00 km/h | 61.00% | 0.00 hPa
  • 13-10-2018 20:00:00 | 23.30°C | Este |12.00 km/h | 60.00% | 0.00 hPa